sensor_id;sensor_type;location;lat;lon;timestamp;temperature;humidity
52509;DHT22;38420;53.150;6.370;2023-08-24T00:00:50;16.00;99.90
52509;DHT22;38420;53.150;6.370;2023-08-24T00:03:16;15.40;99.90
52509;DHT22;38420;53.150;6.370;2023-08-24T00:05:42;14.80;99.90
52509;DHT22;38420;53.150;6.370;2023-08-24T00:08:08;15.80;99.90
52509;DHT22;38420;53.150;6.370;2023-08-24T00:10:35;15.90;99.90
52509;DHT22;38420;53.150;6.370;2023-08-24T00:13:01;13.90;99.90
52509;DHT22;38420;53.150;6.370;2023-08-24T00:15:27;14.90;99.90
52509;DHT22;38420;53.150;6.370;2023-08-24T00:17:52;14.60;99.90
52509;DHT22;38420;53.150;6.370;2023-08-24T00:20:18;15.40;99.90
52509;DHT22;38420;53.150;6.370;2023-08-24T00:22:45;15.80;99.90
52509;DHT22;38420;53.150;6.370;2023-08-24T00:25:11;15.20;99.90
52509;DHT22;38420;53.150;6.370;2023-08-24T00:27:38;15.60;99.90
52509;DHT22;38420;53.150;6.370;2023-08-24T00:30:05;15.90;99.90
52509;DHT22;38420;53.150;6.370;2023-08-24T00:32:32;14.00;99.90
52509;DHT22;38420;53.150;6.370;2023-08-24T00:35:04;14.50;99.90
52509;DHT22;38420;53.150;6.370;2023-08-24T00:37:34;15.70;99.90
52509;DHT22;38420;53.150;6.370;2023-08-24T00:40:00;15.70;99.90
52509;DHT22;38420;53.150;6.370;2023-08-24T00:42:45;14.30;99.90
52509;DHT22;38420;53.150;6.370;2023-08-24T00:45:12;14.90;99.90
52509;DHT22;38420;53.150;6.370;2023-08-24T00:47:43;15.10;99.90
52509;DHT22;38420;53.150;6.370;2023-08-24T00:50:10;15.80;99.90
52509;DHT22;38420;53.150;6.370;2023-08-24T00:52:37;14.80;99.90
52509;DHT22;38420;53.150;6.370;2023-08-24T00:55:05;14.10;99.90
52509;DHT22;38420;53.150;6.370;2023-08-24T00:57:32;14.70;99.90
52509;DHT22;38420;53.150;6.370;2023-08-24T00:59:59;14.90;99.90
52509;DHT22;38420;53.150;6.370;2023-08-24T01:02:27;14.10;99.90
52509;DHT22;38420;53.150;6.370;2023-08-24T01:04:53;14.60;99.90
52509;DHT22;38420;53.150;6.370;2023-08-24T01:07:18;14.20;99.90
52509;DHT22;38420;53.150;6.370;2023-08-24T01:09:44;16.10;99.90
52509;DHT22;38420;53.150;6.370;2023-08-24T01:12:44;14.80;99.90
52509;DHT22;38420;53.150;6.370;2023-08-24T01:15:29;15.90;99.90
52509;DHT22;38420;53.150;6.370;2023-08-24T01:18:00;14.30;99.90
52509;DHT22;38420;53.150;6.370;2023-08-24T01:20:27;15.20;99.90
52509;DHT22;38420;53.150;6.370;2023-08-24T01:23:31;15.60;99.90
52509;DHT22;38420;53.150;6.370;2023-08-24T01:26:18;15.30;99.90
52509;DHT22;38420;53.150;6.370;2023-08-24T01:28:45;16.30;99.90
52509;DHT22;38420;53.150;6.370;2023-08-24T01:31:13;16.30;99.90
52509;DHT22;38420;53.150;6.370;2023-08-24T01:33:40;14.30;99.90
52509;DHT22;38420;53.150;6.370;2023-08-24T01:36:08;14.30;99.90
52509;DHT22;38420;53.150;6.370;2023-08-24T01:38:34;16.10;99.90
52509;DHT22;38420;53.150;6.370;2023-08-24T01:43:54;16.20;99.90
52509;DHT22;38420;53.150;6.370;2023-08-24T01:46:24;14.60;99.90
52509;DHT22;38420;53.150;6.370;2023-08-24T01:48:52;14.50;99.90
52509;DHT22;38420;53.150;6.370;2023-08-24T01:51:18;14.20;99.90
52509;DHT22;38420;53.150;6.370;2023-08-24T01:53:45;16.10;99.90
52509;DHT22;38420;53.150;6.370;2023-08-24T01:56:12;16.20;99.90
52509;DHT22;38420;53.150;6.370;2023-08-24T01:58:38;14.20;99.90
52509;DHT22;38420;53.150;6.370;2023-08-24T02:01:05;16.10;99.90
52509;DHT22;38420;53.150;6.370;2023-08-24T02:03:31;15.90;99.90
52509;DHT22;38420;53.150;6.370;2023-08-24T02:05:57;14.40;99.90
52509;DHT22;38420;53.150;6.370;2023-08-24T02:08:22;14.30;99.90
52509;DHT22;38420;53.150;6.370;2023-08-24T02:10:48;16.20;99.90
52509;DHT22;38420;53.150;6.370;2023-08-24T02:13:13;15.10;99.90
52509;DHT22;38420;53.150;6.370;2023-08-24T02:15:39;14.30;99.90
52509;DHT22;38420;53.150;6.370;2023-08-24T02:18:06;14.90;99.90
52509;DHT22;38420;53.150;6.370;2023-08-24T02:20:35;15.30;99.90
52509;DHT22;38420;53.150;6.370;2023-08-24T02:23:01;15.70;99.90
52509;DHT22;38420;53.150;6.370;2023-08-24T02:25:27;14.50;99.90
52509;DHT22;38420;53.150;6.370;2023-08-24T02:27:52;16.20;99.90
52509;DHT22;38420;53.150;6.370;2023-08-24T02:30:18;14.40;99.90
52509;DHT22;38420;53.150;6.370;2023-08-24T02:32:44;14.20;99.90
52509;DHT22;38420;53.150;6.370;2023-08-24T02:35:09;16.10;99.90
52509;DHT22;38420;53.150;6.370;2023-08-24T02:37:35;15.80;99.90
52509;DHT22;38420;53.150;6.370;2023-08-24T02:40:01;16.30;99.90
52509;DHT22;38420;53.150;6.370;2023-08-24T02:42:26;14.50;99.90
52509;DHT22;38420;53.150;6.370;2023-08-24T02:44:52;14.60;99.90
52509;DHT22;38420;53.150;6.370;2023-08-24T02:47:18;15.00;99.90
52509;DHT22;38420;53.150;6.370;2023-08-24T02:49:43;15.30;99.90
52509;DHT22;38420;53.150;6.370;2023-08-24T02:52:09;15.70;99.90
52509;DHT22;38420;53.150;6.370;2023-08-24T02:54:34;14.40;99.90
52509;DHT22;38420;53.150;6.370;2023-08-24T02:57:00;14.30;99.90
52509;DHT22;38420;53.150;6.370;2023-08-24T02:59:25;15.50;99.90
52509;DHT22;38420;53.150;6.370;2023-08-24T03:01:51;16.40;99.90
52509;DHT22;38420;53.150;6.370;2023-08-24T03:04:17;16.50;99.90
52509;DHT22;38420;53.150;6.370;2023-08-24T03:06:43;16.50;99.90
52509;DHT22;38420;53.150;6.370;2023-08-24T03:09:09;14.40;99.90
52509;DHT22;38420;53.150;6.370;2023-08-24T03:11:35;16.00;99.90
52509;DHT22;38420;53.150;6.370;2023-08-24T03:14:01;16.00;99.90
52509;DHT22;38420;53.150;6.370;2023-08-24T03:16:27;16.40;99.90
52509;DHT22;38420;53.150;6.370;2023-08-24T03:18:52;14.90;99.90
52509;DHT22;38420;53.150;6.370;2023-08-24T03:21:18;14.70;99.90
52509;DHT22;38420;53.150;6.370;2023-08-24T03:23:43;14.40;99.90
52509;DHT22;38420;53.150;6.370;2023-08-24T03:26:09;16.00;99.90
52509;DHT22;38420;53.150;6.370;2023-08-24T03:28:34;16.40;99.90
52509;DHT22;38420;53.150;6.370;2023-08-24T03:31:00;16.30;99.90
52509;DHT22;38420;53.150;6.370;2023-08-24T03:33:26;16.20;99.90
52509;DHT22;38420;53.150;6.370;2023-08-24T03:35:53;16.20;99.90
52509;DHT22;38420;53.150;6.370;2023-08-24T03:38:19;15.20;99.90
52509;DHT22;38420;53.150;6.370;2023-08-24T03:40:44;14.10;99.90
52509;DHT22;38420;53.150;6.370;2023-08-24T03:43:11;14.90;99.90
52509;DHT22;38420;53.150;6.370;2023-08-24T03:45:36;15.90;99.90
52509;DHT22;38420;53.150;6.370;2023-08-24T03:48:02;16.20;99.90
52509;DHT22;38420;53.150;6.370;2023-08-24T03:50:28;14.20;99.90
52509;DHT22;38420;53.150;6.370;2023-08-24T03:52:54;14.30;99.90
52509;DHT22;38420;53.150;6.370;2023-08-24T03:55:20;14.10;99.90
52509;DHT22;38420;53.150;6.370;2023-08-24T03:57:46;16.20;99.90
52509;DHT22;38420;53.150;6.370;2023-08-24T04:00:12;14.10;99.90
52509;DHT22;38420;53.150;6.370;2023-08-24T04:02:40;14.60;99.90
52509;DHT22;38420;53.150;6.370;2023-08-24T04:05:06;14.20;99.90
52509;DHT22;38420;53.150;6.370;2023-08-24T04:07:32;14.90;99.90
52509;DHT22;38420;53.150;6.370;2023-08-24T04:10:02;16.30;99.90
52509;DHT22;38420;53.150;6.370;2023-08-24T04:12:30;16.20;99.90
52509;DHT22;38420;53.150;6.370;2023-08-24T04:14:56;14.70;99.90
52509;DHT22;38420;53.150;6.370;2023-08-24T04:17:23;15.00;99.90
52509;DHT22;38420;53.150;6.370;2023-08-24T04:19:50;16.20;99.90
52509;DHT22;38420;53.150;6.370;2023-08-24T04:22:15;15.20;99.90
52509;DHT22;38420;53.150;6.370;2023-08-24T04:24:41;15.30;99.90
52509;DHT22;38420;53.150;6.370;2023-08-24T04:27:07;15.50;99.90
52509;DHT22;38420;53.150;6.370;2023-08-24T04:29:33;14.50;99.90
52509;DHT22;38420;53.150;6.370;2023-08-24T04:31:58;14.40;99.90
52509;DHT22;38420;53.150;6.370;2023-08-24T04:34:24;16.00;99.90
52509;DHT22;38420;53.150;6.370;2023-08-24T04:36:49;16.10;99.90
52509;DHT22;38420;53.150;6.370;2023-08-24T04:39:15;16.60;99.90
52509;DHT22;38420;53.150;6.370;2023-08-24T04:41:41;15.30;99.90
52509;DHT22;38420;53.150;6.370;2023-08-24T04:44:06;14.30;99.90
52509;DHT22;38420;53.150;6.370;2023-08-24T04:46:33;14.70;99.90
52509;DHT22;38420;53.150;6.370;2023-08-24T04:48:59;15.50;99.90
52509;DHT22;38420;53.150;6.370;2023-08-24T04:51:25;16.00;99.90
52509;DHT22;38420;53.150;6.370;2023-08-24T04:53:53;14.40;99.90
52509;DHT22;38420;53.150;6.370;2023-08-24T04:56:19;16.40;99.90
52509;DHT22;38420;53.150;6.370;2023-08-24T04:58:57;16.40;99.90
52509;DHT22;38420;53.150;6.370;2023-08-24T05:01:24;15.10;99.90
52509;DHT22;38420;53.150;6.370;2023-08-24T05:03:51;14.80;99.90
52509;DHT22;38420;53.150;6.370;2023-08-24T05:06:17;15.90;99.90
52509;DHT22;38420;53.150;6.370;2023-08-24T05:08:43;15.20;99.90
52509;DHT22;38420;53.150;6.370;2023-08-24T05:13:39;14.10;99.90
52509;DHT22;38420;53.150;6.370;2023-08-24T05:16:05;14.90;99.90
52509;DHT22;38420;53.150;6.370;2023-08-24T05:18:31;16.00;99.90
52509;DHT22;38420;53.150;6.370;2023-08-24T05:20:56;14.50;99.90
52509;DHT22;38420;53.150;6.370;2023-08-24T05:23:22;14.90;99.90
52509;DHT22;38420;53.150;6.370;2023-08-24T05:25:48;14.10;99.90
52509;DHT22;38420;53.150;6.370;2023-08-24T05:28:13;14.70;99.90
52509;DHT22;38420;53.150;6.370;2023-08-24T05:30:39;14.10;99.90
52509;DHT22;38420;53.150;6.370;2023-08-24T05:33:04;14.10;99.90
52509;DHT22;38420;53.150;6.370;2023-08-24T05:35:30;16.30;99.90
52509;DHT22;38420;53.150;6.370;2023-08-24T05:37:55;14.20;99.90
52509;DHT22;38420;53.150;6.370;2023-08-24T05:40:21;15.90;99.90
52509;DHT22;38420;53.150;6.370;2023-08-24T05:42:47;14.10;99.90
52509;DHT22;38420;53.150;6.370;2023-08-24T05:45:12;14.20;99.90
52509;DHT22;38420;53.150;6.370;2023-08-24T05:47:38;14.60;99.90
52509;DHT22;38420;53.150;6.370;2023-08-24T05:50:03;14.20;99.90
52509;DHT22;38420;53.150;6.370;2023-08-24T05:52:29;15.70;99.90
52509;DHT22;38420;53.150;6.370;2023-08-24T05:54:55;15.50;99.90
52509;DHT22;38420;53.150;6.370;2023-08-24T05:57:20;14.60;99.90
52509;DHT22;38420;53.150;6.370;2023-08-24T05:59:47;15.20;99.90
52509;DHT22;38420;53.150;6.370;2023-08-24T06:02:13;15.80;99.90
52509;DHT22;38420;53.150;6.370;2023-08-24T06:04:38;15.60;99.90
52509;DHT22;38420;53.150;6.370;2023-08-24T06:07:04;16.90;99.90
52509;DHT22;38420;53.150;6.370;2023-08-24T06:09:30;14.60;99.90
52509;DHT22;38420;53.150;6.370;2023-08-24T06:11:57;15.20;99.90
52509;DHT22;38420;53.150;6.370;2023-08-24T06:14:22;16.90;99.90
52509;DHT22;38420;53.150;6.370;2023-08-24T06:16:48;17.10;99.90
52509;DHT22;38420;53.150;6.370;2023-08-24T06:19:14;17.00;99.90
52509;DHT22;38420;53.150;6.370;2023-08-24T06:21:40;16.80;99.90
52509;DHT22;38420;53.150;6.370;2023-08-24T06:24:05;15.70;99.90
52509;DHT22;38420;53.150;6.370;2023-08-24T06:26:31;15.40;99.90
52509;DHT22;38420;53.150;6.370;2023-08-24T06:28:57;15.20;99.90
52509;DHT22;38420;53.150;6.370;2023-08-24T06:31:22;16.80;99.90
52509;DHT22;38420;53.150;6.370;2023-08-24T06:33:50;16.10;99.90
52509;DHT22;38420;53.150;6.370;2023-08-24T06:36:15;15.60;99.90
52509;DHT22;38420;53.150;6.370;2023-08-24T06:38:41;15.70;99.90
52509;DHT22;38420;53.150;6.370;2023-08-24T06:41:07;16.40;99.90
52509;DHT22;38420;53.150;6.370;2023-08-24T06:43:37;15.70;99.90
52509;DHT22;38420;53.150;6.370;2023-08-24T06:46:05;16.80;99.90
52509;DHT22;38420;53.150;6.370;2023-08-24T06:48:34;15.90;99.90
52509;DHT22;38420;53.150;6.370;2023-08-24T06:51:00;17.90;99.90
52509;DHT22;38420;53.150;6.370;2023-08-24T06:53:25;16.10;99.90
52509;DHT22;38420;53.150;6.370;2023-08-24T06:55:55;16.10;99.90
52509;DHT22;38420;53.150;6.370;2023-08-24T06:58:21;17.80;99.90
52509;DHT22;38420;53.150;6.370;2023-08-24T07:00:47;16.20;99.90
52509;DHT22;38420;53.150;6.370;2023-08-24T07:03:12;16.40;99.90
52509;DHT22;38420;53.150;6.370;2023-08-24T07:05:38;17.90;99.90
52509;DHT22;38420;53.150;6.370;2023-08-24T07:08:04;17.60;99.90
52509;DHT22;38420;53.150;6.370;2023-08-24T07:10:31;17.20;99.90
52509;DHT22;38420;53.150;6.370;2023-08-24T07:12:56;17.90;99.90
52509;DHT22;38420;53.150;6.370;2023-08-24T07:15:22;18.40;99.90
52509;DHT22;38420;53.150;6.370;2023-08-24T07:17:47;16.90;99.90
52509;DHT22;38420;53.150;6.370;2023-08-24T07:20:13;17.10;99.90
52509;DHT22;38420;53.150;6.370;2023-08-24T07:22:39;17.80;99.90
52509;DHT22;38420;53.150;6.370;2023-08-24T07:25:05;18.00;99.90
52509;DHT22;38420;53.150;6.370;2023-08-24T07:27:32;17.70;99.90
52509;DHT22;38420;53.150;6.370;2023-08-24T07:29:58;18.20;99.90
52509;DHT22;38420;53.150;6.370;2023-08-24T07:32:25;18.60;99.90
52509;DHT22;38420;53.150;6.370;2023-08-24T07:34:51;18.50;99.90
52509;DHT22;38420;53.150;6.370;2023-08-24T07:37:17;18.40;99.90
52509;DHT22;38420;53.150;6.370;2023-08-24T07:39:43;17.80;99.90
52509;DHT22;38420;53.150;6.370;2023-08-24T07:42:08;18.40;99.90
52509;DHT22;38420;53.150;6.370;2023-08-24T07:44:34;18.80;99.90
52509;DHT22;38420;53.150;6.370;2023-08-24T07:46:59;18.90;99.90
52509;DHT22;38420;53.150;6.370;2023-08-24T07:49:25;18.80;99.90
52509;DHT22;38420;53.150;6.370;2023-08-24T07:51:50;18.80;99.90
52509;DHT22;38420;53.150;6.370;2023-08-24T07:54:16;18.60;99.90
52509;DHT22;38420;53.150;6.370;2023-08-24T07:56:42;18.80;99.90
52509;DHT22;38420;53.150;6.370;2023-08-24T07:59:08;18.80;99.90
52509;DHT22;38420;53.150;6.370;2023-08-24T08:01:33;18.90;99.90
52509;DHT22;38420;53.150;6.370;2023-08-24T08:03:59;19.90;99.90
52509;DHT22;38420;53.150;6.370;2023-08-24T08:06:25;19.20;99.90
52509;DHT22;38420;53.150;6.370;2023-08-24T08:08:52;19.70;99.90
52509;DHT22;38420;53.150;6.370;2023-08-24T08:11:18;20.30;99.90
52509;DHT22;38420;53.150;6.370;2023-08-24T08:13:43;21.00;99.90
52509;DHT22;38420;53.150;6.370;2023-08-24T08:16:09;22.00;99.90
52509;DHT22;38420;53.150;6.370;2023-08-24T08:18:36;22.40;99.90
52509;DHT22;38420;53.150;6.370;2023-08-24T08:21:17;23.70;99.90
52509;DHT22;38420;53.150;6.370;2023-08-24T08:23:46;24.50;99.90
52509;DHT22;38420;53.150;6.370;2023-08-24T08:26:12;24.80;99.90
52509;DHT22;38420;53.150;6.370;2023-08-24T08:28:39;25.20;99.90
52509;DHT22;38420;53.150;6.370;2023-08-24T08:31:05;25.60;99.90
52509;DHT22;38420;53.150;6.370;2023-08-24T08:33:31;25.80;99.90
52509;DHT22;38420;53.150;6.370;2023-08-24T08:35:57;26.20;99.90
52509;DHT22;38420;53.150;6.370;2023-08-24T08:38:23;26.60;99.90
52509;DHT22;38420;53.150;6.370;2023-08-24T08:40:56;27.00;99.90
52509;DHT22;38420;53.150;6.370;2023-08-24T08:43:22;27.50;99.90
52509;DHT22;38420;53.150;6.370;2023-08-24T08:45:53;27.90;99.90
52509;DHT22;38420;53.150;6.370;2023-08-24T08:48:20;28.50;99.90
52509;DHT22;38420;53.150;6.370;2023-08-24T08:50:51;29.00;99.90
52509;DHT22;38420;53.150;6.370;2023-08-24T08:53:20;29.10;99.90
52509;DHT22;38420;53.150;6.370;2023-08-24T08:55:46;29.20;99.90
52509;DHT22;38420;53.150;6.370;2023-08-24T08:58:12;29.00;99.90
52509;DHT22;38420;53.150;6.370;2023-08-24T09:00:39;28.60;99.90
52509;DHT22;38420;53.150;6.370;2023-08-24T09:03:06;28.20;99.90
52509;DHT22;38420;53.150;6.370;2023-08-24T09:05:32;27.40;99.90
52509;DHT22;38420;53.150;6.370;2023-08-24T09:07:58;26.60;99.90
52509;DHT22;38420;53.150;6.370;2023-08-24T09:10:25;26.00;99.90
52509;DHT22;38420;53.150;6.370;2023-08-24T09:12:50;25.40;99.90
52509;DHT22;38420;53.150;6.370;2023-08-24T09:15:27;24.80;99.90
52509;DHT22;38420;53.150;6.370;2023-08-24T09:17:54;24.60;99.90
52509;DHT22;38420;53.150;6.370;2023-08-24T09:20:22;24.30;99.90
52509;DHT22;38420;53.150;6.370;2023-08-24T09:22:48;24.00;99.90
52509;DHT22;38420;53.150;6.370;2023-08-24T09:25:13;23.70;99.90
52509;DHT22;38420;53.150;6.370;2023-08-24T09:27:39;23.50;99.90
52509;DHT22;38420;53.150;6.370;2023-08-24T09:30:07;23.40;99.90
52509;DHT22;38420;53.150;6.370;2023-08-24T09:32:33;23.30;99.90
52509;DHT22;38420;53.150;6.370;2023-08-24T09:35:08;23.20;99.90
52509;DHT22;38420;53.150;6.370;2023-08-24T09:37:35;23.00;99.90
52509;DHT22;38420;53.150;6.370;2023-08-24T09:40:03;22.90;99.90
52509;DHT22;38420;53.150;6.370;2023-08-24T09:42:37;22.80;99.90
52509;DHT22;38420;53.150;6.370;2023-08-24T09:45:04;22.70;99.90
52509;DHT22;38420;53.150;6.370;2023-08-24T09:47:35;22.60;99.90
52509;DHT22;38420;53.150;6.370;2023-08-24T09:50:01;22.50;99.90
52509;DHT22;38420;53.150;6.370;2023-08-24T09:52:31;22.60;99.90
52509;DHT22;38420;53.150;6.370;2023-08-24T09:55:01;22.50;99.90
52509;DHT22;38420;53.150;6.370;2023-08-24T09:57:31;22.30;99.90
52509;DHT22;38420;53.150;6.370;2023-08-24T09:59:58;22.40;99.90
52509;DHT22;38420;53.150;6.370;2023-08-24T10:02:25;22.40;99.90
52509;DHT22;38420;53.150;6.370;2023-08-24T10:04:55;22.30;99.90
52509;DHT22;38420;53.150;6.370;2023-08-24T10:07:24;22.40;99.90
52509;DHT22;38420;53.150;6.370;2023-08-24T10:10:03;22.20;99.90
52509;DHT22;38420;53.150;6.370;2023-08-24T10:12:32;22.00;99.90
52509;DHT22;38420;53.150;6.370;2023-08-24T10:15:01;22.10;99.90
52509;DHT22;38420;53.150;6.370;2023-08-24T10:17:33;22.10;99.90
52509;DHT22;38420;53.150;6.370;2023-08-24T10:20:01;21.90;99.90
52509;DHT22;38420;53.150;6.370;2023-08-24T10:22:30;21.80;99.90
52509;DHT22;38420;53.150;6.370;2023-08-24T10:24:57;22.10;99.90
52509;DHT22;38420;53.150;6.370;2023-08-24T10:27:23;22.00;99.90
52509;DHT22;38420;53.150;6.370;2023-08-24T10:29:49;22.00;99.90
52509;DHT22;38420;53.150;6.370;2023-08-24T10:32:15;21.80;99.90
52509;DHT22;38420;53.150;6.370;2023-08-24T10:34:41;21.50;99.90
52509;DHT22;38420;53.150;6.370;2023-08-24T10:37:10;21.80;99.90
52509;DHT22;38420;53.150;6.370;2023-08-24T10:39:46;21.30;99.90
52509;DHT22;38420;53.150;6.370;2023-08-24T10:42:13;21.50;99.90
52509;DHT22;38420;53.150;6.370;2023-08-24T10:44:40;21.80;99.90
52509;DHT22;38420;53.150;6.370;2023-08-24T10:47:19;21.80;99.90
52509;DHT22;38420;53.150;6.370;2023-08-24T10:49:58;21.20;99.90
52509;DHT22;38420;53.150;6.370;2023-08-24T10:52:34;21.40;99.90
52509;DHT22;38420;53.150;6.370;2023-08-24T10:55:05;21.00;99.90
52509;DHT22;38420;53.150;6.370;2023-08-24T10:58:01;20.90;99.90
52509;DHT22;38420;53.150;6.370;2023-08-24T11:00:29;21.30;99.90
52509;DHT22;38420;53.150;6.370;2023-08-24T11:02:55;21.40;99.90
52509;DHT22;38420;53.150;6.370;2023-08-24T11:05:26;21.30;99.90
52509;DHT22;38420;53.150;6.370;2023-08-24T11:08:05;21.10;99.90
52509;DHT22;38420;53.150;6.370;2023-08-24T11:15:42;21.00;99.90
52509;DHT22;38420;53.150;6.370;2023-08-24T11:18:27;21.20;99.90
52509;DHT22;38420;53.150;6.370;2023-08-24T11:23:28;20.80;99.90
52509;DHT22;38420;53.150;6.370;2023-08-24T11:25:55;20.70;99.90
52509;DHT22;38420;53.150;6.370;2023-08-24T11:28:23;20.70;99.90
52509;DHT22;38420;53.150;6.370;2023-08-24T11:30:49;20.60;99.90
52509;DHT22;38420;53.150;6.370;2023-08-24T11:33:16;21.50;99.90
52509;DHT22;38420;53.150;6.370;2023-08-24T11:35:46;21.00;99.90
52509;DHT22;38420;53.150;6.370;2023-08-24T11:38:12;20.90;99.90
52509;DHT22;38420;53.150;6.370;2023-08-24T11:40:38;20.60;99.90
52509;DHT22;38420;53.150;6.370;2023-08-24T11:43:04;20.80;99.90
52509;DHT22;38420;53.150;6.370;2023-08-24T11:45:32;20.90;99.90
52509;DHT22;38420;53.150;6.370;2023-08-24T11:47:59;22.20;99.90
52509;DHT22;38420;53.150;6.370;2023-08-24T11:50:26;20.80;99.90
52509;DHT22;38420;53.150;6.370;2023-08-24T11:52:53;21.80;99.90
52509;DHT22;38420;53.150;6.370;2023-08-24T11:55:20;22.30;99.90
52509;DHT22;38420;53.150;6.370;2023-08-24T11:57:46;21.10;99.90
52509;DHT22;38420;53.150;6.370;2023-08-24T12:00:12;22.40;99.90
52509;DHT22;38420;53.150;6.370;2023-08-24T12:02:40;22.30;99.90
52509;DHT22;38420;53.150;6.370;2023-08-24T12:05:07;22.00;99.90
52509;DHT22;38420;53.150;6.370;2023-08-24T12:07:33;22.20;99.90
52509;DHT22;38420;53.150;6.370;2023-08-24T12:10:02;22.30;99.90
52509;DHT22;38420;53.150;6.370;2023-08-24T12:12:28;22.40;99.90
52509;DHT22;38420;53.150;6.370;2023-08-24T12:14:55;21.10;99.90
52509;DHT22;38420;53.150;6.370;2023-08-24T12:17:21;21.00;99.90
52509;DHT22;38420;53.150;6.370;2023-08-24T12:19:58;21.70;99.90
52509;DHT22;38420;53.150;6.370;2023-08-24T12:22:24;21.90;99.90
52509;DHT22;38420;53.150;6.370;2023-08-24T12:24:50;22.20;99.90
52509;DHT22;38420;53.150;6.370;2023-08-24T12:27:26;21.50;99.90
52509;DHT22;38420;53.150;6.370;2023-08-24T12:29:52;21.00;99.90
52509;DHT22;38420;53.150;6.370;2023-08-24T12:32:20;21.60;99.90
52509;DHT22;38420;53.150;6.370;2023-08-24T12:34:48;21.10;99.90
52509;DHT22;38420;53.150;6.370;2023-08-24T12:37:13;22.00;99.90
52509;DHT22;38420;53.150;6.370;2023-08-24T12:39:39;21.30;99.90
52509;DHT22;38420;53.150;6.370;2023-08-24T12:42:05;21.60;99.90
52509;DHT22;38420;53.150;6.370;2023-08-24T12:44:32;22.10;99.90
52509;DHT22;38420;53.150;6.370;2023-08-24T12:46:58;22.30;99.90
52509;DHT22;38420;53.150;6.370;2023-08-24T12:49:24;22.00;99.90
52509;DHT22;38420;53.150;6.370;2023-08-24T12:51:49;22.20;99.90
52509;DHT22;38420;53.150;6.370;2023-08-24T12:54:15;22.10;99.90
52509;DHT22;38420;53.150;6.370;2023-08-24T12:56:41;22.90;99.90
52509;DHT22;38420;53.150;6.370;2023-08-24T12:59:07;22.60;99.90
52509;DHT22;38420;53.150;6.370;2023-08-24T13:01:33;22.70;99.90
52509;DHT22;38420;53.150;6.370;2023-08-24T13:03:58;22.30;99.90
52509;DHT22;38420;53.150;6.370;2023-08-24T13:06:24;22.50;99.90
52509;DHT22;38420;53.150;6.370;2023-08-24T13:08:50;22.60;99.90
52509;DHT22;38420;53.150;6.370;2023-08-24T13:11:15;22.60;99.90
52509;DHT22;38420;53.150;6.370;2023-08-24T13:13:41;21.90;99.90
52509;DHT22;38420;53.150;6.370;2023-08-24T13:16:07;22.70;99.90
52509;DHT22;38420;53.150;6.370;2023-08-24T13:18:33;22.00;99.90
52509;DHT22;38420;53.150;6.370;2023-08-24T13:20:58;22.50;99.90
52509;DHT22;38420;53.150;6.370;2023-08-24T13:23:24;22.60;99.90
52509;DHT22;38420;53.150;6.370;2023-08-24T13:25:49;22.70;99.90
52509;DHT22;38420;53.150;6.370;2023-08-24T13:28:15;22.90;99.90
52509;DHT22;38420;53.150;6.370;2023-08-24T13:30:40;22.70;99.90
52509;DHT22;38420;53.150;6.370;2023-08-24T13:33:08;22.40;99.90
52509;DHT22;38420;53.150;6.370;2023-08-24T13:35:34;22.50;99.90
52509;DHT22;38420;53.150;6.370;2023-08-24T13:38:00;22.50;99.90
52509;DHT22;38420;53.150;6.370;2023-08-24T13:40:25;22.50;99.90
52509;DHT22;38420;53.150;6.370;2023-08-24T13:42:51;22.30;99.90
52509;DHT22;38420;53.150;6.370;2023-08-24T13:45:17;22.80;99.90
52509;DHT22;38420;53.150;6.370;2023-08-24T13:47:42;22.80;99.90
52509;DHT22;38420;53.150;6.370;2023-08-24T13:50:08;22.30;99.90
52509;DHT22;38420;53.150;6.370;2023-08-24T13:52:34;22.80;99.90
52509;DHT22;38420;53.150;6.370;2023-08-24T13:54:59;22.70;99.90
52509;DHT22;38420;53.150;6.370;2023-08-24T13:57:28;23.00;99.90
52509;DHT22;38420;53.150;6.370;2023-08-24T13:59:54;22.70;99.90
52509;DHT22;38420;53.150;6.370;2023-08-24T14:02:19;22.20;99.90
52509;DHT22;38420;53.150;6.370;2023-08-24T14:04:45;23.30;99.90
52509;DHT22;38420;53.150;6.370;2023-08-24T14:07:11;22.20;99.90
52509;DHT22;38420;53.150;6.370;2023-08-24T14:09:37;22.10;99.90
52509;DHT22;38420;53.150;6.370;2023-08-24T14:12:03;23.10;99.90
52509;DHT22;38420;53.150;6.370;2023-08-24T14:14:28;23.30;99.90
52509;DHT22;38420;53.150;6.370;2023-08-24T14:16:55;23.10;99.90
52509;DHT22;38420;53.150;6.370;2023-08-24T14:19:21;22.70;99.90
52509;DHT22;38420;53.150;6.370;2023-08-24T14:21:47;22.50;99.90
52509;DHT22;38420;53.150;6.370;2023-08-24T14:24:13;22.60;99.90
52509;DHT22;38420;53.150;6.370;2023-08-24T14:26:38;23.00;99.90
52509;DHT22;38420;53.150;6.370;2023-08-24T14:29:10;22.50;99.90
52509;DHT22;38420;53.150;6.370;2023-08-24T14:31:36;22.50;99.90
52509;DHT22;38420;53.150;6.370;2023-08-24T14:34:02;21.90;99.90
52509;DHT22;38420;53.150;6.370;2023-08-24T14:36:28;22.70;99.90
52509;DHT22;38420;53.150;6.370;2023-08-24T14:38:54;22.90;99.90
52509;DHT22;38420;53.150;6.370;2023-08-24T14:41:20;22.90;99.90
52509;DHT22;38420;53.150;6.370;2023-08-24T14:43:46;22.90;99.90
52509;DHT22;38420;53.150;6.370;2023-08-24T14:46:12;21.70;99.90
52509;DHT22;38420;53.150;6.370;2023-08-24T14:48:38;22.60;99.90
52509;DHT22;38420;53.150;6.370;2023-08-24T14:51:05;21.70;99.90
52509;DHT22;38420;53.150;6.370;2023-08-24T14:53:31;22.00;99.90
52509;DHT22;38420;53.150;6.370;2023-08-24T14:55:57;22.50;99.90
52509;DHT22;38420;53.150;6.370;2023-08-24T14:58:25;22.90;99.90
52509;DHT22;38420;53.150;6.370;2023-08-24T15:00:52;21.90;99.90
52509;DHT22;38420;53.150;6.370;2023-08-24T15:03:18;22.70;99.90
52509;DHT22;38420;53.150;6.370;2023-08-24T15:05:55;22.00;99.90
52509;DHT22;38420;53.150;6.370;2023-08-24T15:08:20;22.70;99.90
52509;DHT22;38420;53.150;6.370;2023-08-24T15:10:48;23.00;99.90
52509;DHT22;38420;53.150;6.370;2023-08-24T15:13:14;23.00;99.90
52509;DHT22;38420;53.150;6.370;2023-08-24T15:15:39;21.70;99.90
52509;DHT22;38420;53.150;6.370;2023-08-24T15:18:05;23.20;99.90
52509;DHT22;38420;53.150;6.370;2023-08-24T15:20:31;22.00;99.90
52509;DHT22;38420;53.150;6.370;2023-08-24T15:22:58;21.90;99.90
52509;DHT22;38420;53.150;6.370;2023-08-24T15:25:24;22.80;99.90
52509;DHT22;38420;53.150;6.370;2023-08-24T15:27:50;22.90;99.90
52509;DHT22;38420;53.150;6.370;2023-08-24T15:30:15;21.90;99.90
52509;DHT22;38420;53.150;6.370;2023-08-24T15:32:41;22.30;99.90
52509;DHT22;38420;53.150;6.370;2023-08-24T15:35:07;23.30;99.90
52509;DHT22;38420;53.150;6.370;2023-08-24T15:37:33;23.20;99.90
52509;DHT22;38420;53.150;6.370;2023-08-24T15:39:58;22.10;99.90
52509;DHT22;38420;53.150;6.370;2023-08-24T15:42:25;22.10;99.90